sensor_id;sensor_type;location;lat;lon;timestamp;P1;durP1;ratioP1;P2;durP2;ratioP2
71150;SDS011;59071;42.138;24.768;2023-07-31T00:01:17;3.38;;;1.60;;
71150;SDS011;59071;42.138;24.768;2023-07-31T00:03:43;1.27;;;1.17;;
71150;SDS011;59071;42.138;24.768;2023-07-31T00:06:08;1.52;;;1.30;;
71150;SDS011;59071;42.138;24.768;2023-07-31T00:08:34;2.15;;;1.40;;
71150;SDS011;59071;42.138;24.768;2023-07-31T00:10:59;1.50;;;1.23;;
71150;SDS011;59071;42.138;24.768;2023-07-31T00:13:24;2.58;;;1.70;;
71150;SDS011;59071;42.138;24.768;2023-07-31T00:15:50;2.78;;;1.48;;
71150;SDS011;59071;42.138;24.768;2023-07-31T00:18:15;1.48;;;1.38;;
71150;SDS011;59071;42.138;24.768;2023-07-31T00:20:41;1.90;;;1.45;;
71150;SDS011;59071;42.138;24.768;2023-07-31T00:23:06;2.75;;;1.70;;
71150;SDS011;59071;42.138;24.768;2023-07-31T00:25:32;1.92;;;1.52;;
71150;SDS011;59071;42.138;24.768;2023-07-31T00:27:57;1.85;;;1.55;;
71150;SDS011;59071;42.138;24.768;2023-07-31T00:30:22;2.13;;;1.30;;
71150;SDS011;59071;42.138;24.768;2023-07-31T00:32:50;3.28;;;1.60;;
71150;SDS011;59071;42.138;24.768;2023-07-31T00:35:15;2.20;;;1.48;;
71150;SDS011;59071;42.138;24.768;2023-07-31T00:37:41;3.10;;;1.67;;
71150;SDS011;59071;42.138;24.768;2023-07-31T00:40:07;2.10;;;1.70;;
71150;SDS011;59071;42.138;24.768;2023-07-31T00:42:33;2.13;;;1.30;;
71150;SDS011;59071;42.138;24.768;2023-07-31T00:44:58;2.15;;;1.73;;
71150;SDS011;59071;42.138;24.768;2023-07-31T00:47:23;1.70;;;1.50;;
71150;SDS011;59071;42.138;24.768;2023-07-31T00:49:49;3.85;;;1.60;;
71150;SDS011;59071;42.138;24.768;2023-07-31T00:52:14;2.00;;;1.40;;
71150;SDS011;59071;42.138;24.768;2023-07-31T00:54:41;3.85;;;1.60;;
71150;SDS011;59071;42.138;24.768;2023-07-31T00:57:06;2.35;;;1.60;;
71150;SDS011;59071;42.138;24.768;2023-07-31T00:59:33;1.73;;;1.48;;
71150;SDS011;59071;42.138;24.768;2023-07-31T01:01:59;2.42;;;1.42;;
71150;SDS011;59071;42.138;24.768;2023-07-31T01:04:24;3.75;;;1.60;;
71150;SDS011;59071;42.138;24.768;2023-07-31T01:11:56;1.95;;;1.60;;
71150;SDS011;59071;42.138;24.768;2023-07-31T01:14:24;2.85;;;2.20;;
71150;SDS011;59071;42.138;24.768;2023-07-31T01:16:50;2.25;;;1.90;;
71150;SDS011;59071;42.138;24.768;2023-07-31T01:19:15;3.38;;;1.70;;
71150;SDS011;59071;42.138;24.768;2023-07-31T01:24:41;2.55;;;1.70;;
71150;SDS011;59071;42.138;24.768;2023-07-31T01:27:32;2.63;;;1.95;;
71150;SDS011;59071;42.138;24.768;2023-07-31T01:32:42;4.80;;;1.80;;
71150;SDS011;59071;42.138;24.768;2023-07-31T01:35:12;2.30;;;1.95;;
71150;SDS011;59071;42.138;24.768;2023-07-31T01:37:38;2.65;;;2.00;;
71150;SDS011;59071;42.138;24.768;2023-07-31T01:40:04;3.47;;;2.30;;
71150;SDS011;59071;42.138;24.768;2023-07-31T01:42:30;3.40;;;2.38;;
71150;SDS011;59071;42.138;24.768;2023-07-31T01:44:55;4.45;;;2.17;;
71150;SDS011;59071;42.138;24.768;2023-07-31T01:47:20;4.75;;;2.22;;
71150;SDS011;59071;42.138;24.768;2023-07-31T01:49:46;5.45;;;2.80;;
71150;SDS011;59071;42.138;24.768;2023-07-31T01:52:11;4.43;;;2.35;;
71150;SDS011;59071;42.138;24.768;2023-07-31T01:54:37;5.65;;;2.92;;
71150;SDS011;59071;42.138;24.768;2023-07-31T01:57:02;4.10;;;2.45;;
71150;SDS011;59071;42.138;24.768;2023-07-31T01:59:28;4.55;;;2.72;;
71150;SDS011;59071;42.138;24.768;2023-07-31T02:01:54;4.70;;;2.53;;
71150;SDS011;59071;42.138;24.768;2023-07-31T02:04:19;3.83;;;2.88;;
71150;SDS011;59071;42.138;24.768;2023-07-31T02:06:44;3.92;;;2.60;;
71150;SDS011;59071;42.138;24.768;2023-07-31T02:09:10;4.63;;;2.72;;
71150;SDS011;59071;42.138;24.768;2023-07-31T02:11:35;3.80;;;3.05;;
71150;SDS011;59071;42.138;24.768;2023-07-31T02:14:01;5.18;;;3.55;;
71150;SDS011;59071;42.138;24.768;2023-07-31T02:16:26;7.18;;;5.10;;
71150;SDS011;59071;42.138;24.768;2023-07-31T02:18:51;8.57;;;5.93;;
71150;SDS011;59071;42.138;24.768;2023-07-31T02:21:17;11.25;;;6.78;;
71150;SDS011;59071;42.138;24.768;2023-07-31T02:23:42;9.98;;;6.25;;
71150;SDS011;59071;42.138;24.768;2023-07-31T02:26:08;8.68;;;5.25;;
71150;SDS011;59071;42.138;24.768;2023-07-31T02:28:33;5.47;;;3.65;;
71150;SDS011;59071;42.138;24.768;2023-07-31T02:30:59;6.00;;;3.65;;
71150;SDS011;59071;42.138;24.768;2023-07-31T02:33:24;6.47;;;3.03;;
71150;SDS011;59071;42.138;24.768;2023-07-31T02:35:50;3.60;;;2.80;;
71150;SDS011;59071;42.138;24.768;2023-07-31T02:38:15;4.30;;;2.65;;
71150;SDS011;59071;42.138;24.768;2023-07-31T02:40:40;3.15;;;2.65;;
71150;SDS011;59071;42.138;24.768;2023-07-31T02:43:06;3.03;;;2.70;;
71150;SDS011;59071;42.138;24.768;2023-07-31T02:45:32;3.40;;;2.53;;
71150;SDS011;59071;42.138;24.768;2023-07-31T02:47:57;3.63;;;2.75;;
71150;SDS011;59071;42.138;24.768;2023-07-31T02:50:23;3.75;;;2.58;;
71150;SDS011;59071;42.138;24.768;2023-07-31T02:52:48;6.57;;;2.97;;
71150;SDS011;59071;42.138;24.768;2023-07-31T02:55:14;4.90;;;2.92;;
71150;SDS011;59071;42.138;24.768;2023-07-31T02:57:39;4.32;;;3.03;;
71150;SDS011;59071;42.138;24.768;2023-07-31T03:00:05;4.43;;;3.03;;
71150;SDS011;59071;42.138;24.768;2023-07-31T03:02:31;4.68;;;3.08;;
71150;SDS011;59071;42.138;24.768;2023-07-31T03:04:57;7.93;;;3.53;;
71150;SDS011;59071;42.138;24.768;2023-07-31T03:07:23;10.05;;;6.40;;
71150;SDS011;59071;42.138;24.768;2023-07-31T03:09:48;10.18;;;6.88;;
71150;SDS011;59071;42.138;24.768;2023-07-31T03:12:14;3.63;;;3.33;;
71150;SDS011;59071;42.138;24.768;2023-07-31T03:14:39;3.83;;;3.40;;
71150;SDS011;59071;42.138;24.768;2023-07-31T03:17:05;4.15;;;3.28;;
71150;SDS011;59071;42.138;24.768;2023-07-31T03:19:31;7.50;;;3.45;;
71150;SDS011;59071;42.138;24.768;2023-07-31T03:21:57;6.57;;;3.58;;
71150;SDS011;59071;42.138;24.768;2023-07-31T03:24:23;5.93;;;3.58;;
71150;SDS011;59071;42.138;24.768;2023-07-31T03:26:48;7.28;;;4.00;;
71150;SDS011;59071;42.138;24.768;2023-07-31T03:29:13;5.50;;;3.67;;
71150;SDS011;59071;42.138;24.768;2023-07-31T03:31:39;5.32;;;4.13;;
71150;SDS011;59071;42.138;24.768;2023-07-31T03:34:04;5.07;;;4.18;;
71150;SDS011;59071;42.138;24.768;2023-07-31T03:36:30;6.38;;;4.50;;
71150;SDS011;59071;42.138;24.768;2023-07-31T03:38:55;5.85;;;4.65;;
71150;SDS011;59071;42.138;24.768;2023-07-31T03:41:21;6.97;;;4.80;;
71150;SDS011;59071;42.138;24.768;2023-07-31T03:43:51;6.45;;;4.82;;
71150;SDS011;59071;42.138;24.768;2023-07-31T03:46:23;9.10;;;5.35;;
71150;SDS011;59071;42.138;24.768;2023-07-31T03:48:49;7.90;;;4.90;;
71150;SDS011;59071;42.138;24.768;2023-07-31T03:51:15;11.18;;;8.68;;
71150;SDS011;59071;42.138;24.768;2023-07-31T03:53:41;6.38;;;5.20;;
71150;SDS011;59071;42.138;24.768;2023-07-31T03:56:07;6.60;;;4.95;;
71150;SDS011;59071;42.138;24.768;2023-07-31T03:58:32;7.50;;;5.10;;
71150;SDS011;59071;42.138;24.768;2023-07-31T04:00:58;7.95;;;5.03;;
71150;SDS011;59071;42.138;24.768;2023-07-31T04:03:23;6.60;;;4.65;;
71150;SDS011;59071;42.138;24.768;2023-07-31T04:05:48;8.45;;;4.68;;
71150;SDS011;59071;42.138;24.768;2023-07-31T04:08:14;9.65;;;6.22;;
71150;SDS011;59071;42.138;24.768;2023-07-31T04:10:39;7.53;;;4.22;;
71150;SDS011;59071;42.138;24.768;2023-07-31T04:13:05;5.55;;;4.40;;
71150;SDS011;59071;42.138;24.768;2023-07-31T04:15:30;7.63;;;4.40;;
71150;SDS011;59071;42.138;24.768;2023-07-31T04:17:55;7.25;;;4.75;;
71150;SDS011;59071;42.138;24.768;2023-07-31T04:20:21;7.43;;;5.03;;
71150;SDS011;59071;42.138;24.768;2023-07-31T04:22:46;6.07;;;4.60;;
71150;SDS011;59071;42.138;24.768;2023-07-31T04:25:12;8.63;;;7.20;;
71150;SDS011;59071;42.138;24.768;2023-07-31T04:27:37;13.27;;;9.00;;
71150;SDS011;59071;42.138;24.768;2023-07-31T04:30:03;6.35;;;4.60;;
71150;SDS011;59071;42.138;24.768;2023-07-31T04:32:29;6.93;;;5.80;;
71150;SDS011;59071;42.138;24.768;2023-07-31T04:34:55;13.05;;;9.93;;
71150;SDS011;59071;42.138;24.768;2023-07-31T04:37:20;11.10;;;9.45;;
71150;SDS011;59071;42.138;24.768;2023-07-31T04:39:46;6.68;;;5.80;;
71150;SDS011;59071;42.138;24.768;2023-07-31T04:42:11;6.47;;;5.35;;
71150;SDS011;59071;42.138;24.768;2023-07-31T04:44:37;6.82;;;5.40;;
71150;SDS011;59071;42.138;24.768;2023-07-31T04:47:02;6.78;;;5.45;;
71150;SDS011;59071;42.138;24.768;2023-07-31T04:49:28;15.07;;;11.45;;
71150;SDS011;59071;42.138;24.768;2023-07-31T04:51:54;7.15;;;5.40;;
71150;SDS011;59071;42.138;24.768;2023-07-31T04:54:19;6.28;;;4.80;;
71150;SDS011;59071;42.138;24.768;2023-07-31T04:56:44;6.63;;;5.03;;
71150;SDS011;59071;42.138;24.768;2023-07-31T04:59:10;5.55;;;4.53;;
71150;SDS011;59071;42.138;24.768;2023-07-31T05:01:35;6.05;;;4.65;;
71150;SDS011;59071;42.138;24.768;2023-07-31T05:04:01;5.22;;;4.57;;
71150;SDS011;59071;42.138;24.768;2023-07-31T05:06:26;14.77;;;10.30;;
71150;SDS011;59071;42.138;24.768;2023-07-31T05:08:51;13.45;;;10.02;;
71150;SDS011;59071;42.138;24.768;2023-07-31T05:11:17;6.88;;;5.10;;
71150;SDS011;59071;42.138;24.768;2023-07-31T05:13:42;7.57;;;6.05;;
71150;SDS011;59071;42.138;24.768;2023-07-31T05:16:08;7.22;;;5.50;;
71150;SDS011;59071;42.138;24.768;2023-07-31T05:18:33;6.38;;;4.60;;
71150;SDS011;59071;42.138;24.768;2023-07-31T05:20:59;6.22;;;4.40;;
71150;SDS011;59071;42.138;24.768;2023-07-31T05:23:24;7.45;;;4.40;;
71150;SDS011;59071;42.138;24.768;2023-07-31T05:25:49;7.20;;;4.20;;
71150;SDS011;59071;42.138;24.768;2023-07-31T05:28:15;7.10;;;4.57;;
71150;SDS011;59071;42.138;24.768;2023-07-31T05:30:40;7.63;;;5.15;;
71150;SDS011;59071;42.138;24.768;2023-07-31T05:33:06;5.20;;;4.28;;
71150;SDS011;59071;42.138;24.768;2023-07-31T05:35:31;6.85;;;4.10;;
71150;SDS011;59071;42.138;24.768;2023-07-31T05:37:56;5.85;;;4.20;;
71150;SDS011;59071;42.138;24.768;2023-07-31T05:40:22;5.40;;;4.00;;
71150;SDS011;59071;42.138;24.768;2023-07-31T05:42:47;5.40;;;4.13;;
71150;SDS011;59071;42.138;24.768;2023-07-31T05:45:13;5.70;;;3.95;;
71150;SDS011;59071;42.138;24.768;2023-07-31T05:47:38;8.00;;;4.10;;
71150;SDS011;59071;42.138;24.768;2023-07-31T05:50:04;4.95;;;3.60;;
71150;SDS011;59071;42.138;24.768;2023-07-31T05:52:30;4.90;;;3.67;;
71150;SDS011;59071;42.138;24.768;2023-07-31T05:54:55;6.68;;;4.03;;
71150;SDS011;59071;42.138;24.768;2023-07-31T05:57:21;5.80;;;3.97;;
71150;SDS011;59071;42.138;24.768;2023-07-31T05:59:46;7.60;;;4.80;;
71150;SDS011;59071;42.138;24.768;2023-07-31T06:02:12;8.75;;;4.85;;
71150;SDS011;59071;42.138;24.768;2023-07-31T06:04:37;7.00;;;4.55;;
71150;SDS011;59071;42.138;24.768;2023-07-31T06:07:03;6.75;;;4.53;;
71150;SDS011;59071;42.138;24.768;2023-07-31T06:09:28;5.90;;;4.65;;
71150;SDS011;59071;42.138;24.768;2023-07-31T06:11:54;7.95;;;4.75;;
71150;SDS011;59071;42.138;24.768;2023-07-31T06:14:19;6.68;;;5.13;;
71150;SDS011;59071;42.138;24.768;2023-07-31T06:16:45;6.85;;;4.95;;
71150;SDS011;59071;42.138;24.768;2023-07-31T06:19:10;7.22;;;5.10;;
71150;SDS011;59071;42.138;24.768;2023-07-31T06:21:36;7.32;;;5.47;;
71150;SDS011;59071;42.138;24.768;2023-07-31T06:24:07;5.75;;;5.05;;
71150;SDS011;59071;42.138;24.768;2023-07-31T06:26:33;5.68;;;5.00;;
71150;SDS011;59071;42.138;24.768;2023-07-31T06:28:58;7.45;;;5.57;;
71150;SDS011;59071;42.138;24.768;2023-07-31T06:31:23;7.25;;;6.00;;
71150;SDS011;59071;42.138;24.768;2023-07-31T06:33:49;9.77;;;5.80;;
71150;SDS011;59071;42.138;24.768;2023-07-31T06:36:16;6.05;;;5.32;;
71150;SDS011;59071;42.138;24.768;2023-07-31T06:38:41;7.43;;;6.00;;
71150;SDS011;59071;42.138;24.768;2023-07-31T06:41:06;6.80;;;5.60;;
71150;SDS011;59071;42.138;24.768;2023-07-31T06:43:32;9.02;;;5.88;;
71150;SDS011;59071;42.138;24.768;2023-07-31T06:45:57;7.40;;;5.68;;
71150;SDS011;59071;42.138;24.768;2023-07-31T06:48:23;8.57;;;6.13;;
71150;SDS011;59071;42.138;24.768;2023-07-31T06:50:48;8.02;;;6.32;;
71150;SDS011;59071;42.138;24.768;2023-07-31T06:53:13;6.93;;;6.13;;
71150;SDS011;59071;42.138;24.768;2023-07-31T06:55:39;6.70;;;5.93;;
71150;SDS011;59071;42.138;24.768;2023-07-31T06:58:04;8.68;;;6.43;;
71150;SDS011;59071;42.138;24.768;2023-07-31T07:00:30;6.90;;;6.20;;
71150;SDS011;59071;42.138;24.768;2023-07-31T07:02:56;8.50;;;6.35;;
71150;SDS011;59071;42.138;24.768;2023-07-31T07:05:21;9.55;;;6.53;;
71150;SDS011;59071;42.138;24.768;2023-07-31T07:07:48;8.02;;;6.18;;
71150;SDS011;59071;42.138;24.768;2023-07-31T07:10:15;9.85;;;6.10;;
71150;SDS011;59071;42.138;24.768;2023-07-31T07:12:40;7.47;;;6.28;;
71150;SDS011;59071;42.138;24.768;2023-07-31T07:15:06;7.53;;;6.68;;
71150;SDS011;59071;42.138;24.768;2023-07-31T07:17:31;7.20;;;5.90;;
71150;SDS011;59071;42.138;24.768;2023-07-31T07:19:57;7.03;;;6.32;;
71150;SDS011;59071;42.138;24.768;2023-07-31T07:22:23;7.00;;;6.30;;
71150;SDS011;59071;42.138;24.768;2023-07-31T07:24:49;7.53;;;6.75;;
71150;SDS011;59071;42.138;24.768;2023-07-31T07:27:14;7.72;;;6.35;;
71150;SDS011;59071;42.138;24.768;2023-07-31T07:29:40;8.05;;;6.45;;
71150;SDS011;59071;42.138;24.768;2023-07-31T07:32:05;7.97;;;7.10;;
71150;SDS011;59071;42.138;24.768;2023-07-31T07:34:31;8.75;;;6.82;;
71150;SDS011;59071;42.138;24.768;2023-07-31T07:36:56;8.95;;;6.63;;
71150;SDS011;59071;42.138;24.768;2023-07-31T07:39:22;9.38;;;7.38;;
71150;SDS011;59071;42.138;24.768;2023-07-31T07:41:47;8.13;;;7.20;;
71150;SDS011;59071;42.138;24.768;2023-07-31T07:44:13;7.78;;;6.65;;
71150;SDS011;59071;42.138;24.768;2023-07-31T07:46:39;7.78;;;6.97;;
71150;SDS011;59071;42.138;24.768;2023-07-31T07:49:05;9.13;;;7.18;;
71150;SDS011;59071;42.138;24.768;2023-07-31T07:51:30;8.73;;;7.82;;
71150;SDS011;59071;42.138;24.768;2023-07-31T07:53:57;8.93;;;7.57;;
71150;SDS011;59071;42.138;24.768;2023-07-31T07:56:23;7.53;;;6.82;;
71150;SDS011;59071;42.138;24.768;2023-07-31T07:58:49;9.27;;;7.15;;
71150;SDS011;59071;42.138;24.768;2023-07-31T08:01:15;7.47;;;6.78;;
71150;SDS011;59071;42.138;24.768;2023-07-31T08:03:41;8.82;;;7.20;;
71150;SDS011;59071;42.138;24.768;2023-07-31T08:06:06;7.43;;;6.72;;
71150;SDS011;59071;42.138;24.768;2023-07-31T08:08:34;8.07;;;7.03;;
71150;SDS011;59071;42.138;24.768;2023-07-31T08:11:00;8.25;;;7.22;;
71150;SDS011;59071;42.138;24.768;2023-07-31T08:13:25;7.57;;;6.88;;
71150;SDS011;59071;42.138;24.768;2023-07-31T08:15:50;7.85;;;6.70;;
71150;SDS011;59071;42.138;24.768;2023-07-31T08:18:16;7.47;;;6.78;;
71150;SDS011;59071;42.138;24.768;2023-07-31T08:20:42;8.13;;;6.65;;
71150;SDS011;59071;42.138;24.768;2023-07-31T08:23:08;7.35;;;6.10;;
71150;SDS011;59071;42.138;24.768;2023-07-31T08:25:34;6.80;;;6.10;;
71150;SDS011;59071;42.138;24.768;2023-07-31T08:28:01;6.80;;;6.20;;
71150;SDS011;59071;42.138;24.768;2023-07-31T08:30:26;7.05;;;6.35;;
71150;SDS011;59071;42.138;24.768;2023-07-31T08:32:52;6.72;;;6.00;;
71150;SDS011;59071;42.138;24.768;2023-07-31T08:35:17;7.80;;;6.35;;
71150;SDS011;59071;42.138;24.768;2023-07-31T08:37:43;7.13;;;6.43;;
71150;SDS011;59071;42.138;24.768;2023-07-31T08:40:08;8.55;;;7.70;;
71150;SDS011;59071;42.138;24.768;2023-07-31T08:42:42;8.80;;;8.00;;
71150;SDS011;59071;42.138;24.768;2023-07-31T08:45:15;9.85;;;8.32;;
71150;SDS011;59071;42.138;24.768;2023-07-31T08:47:46;11.20;;;7.70;;
71150;SDS011;59071;42.138;24.768;2023-07-31T08:50:19;8.10;;;7.30;;
71150;SDS011;59071;42.138;24.768;2023-07-31T08:52:46;7.82;;;7.03;;
71150;SDS011;59071;42.138;24.768;2023-07-31T08:55:13;7.70;;;6.75;;
71150;SDS011;59071;42.138;24.768;2023-07-31T08:57:39;7.30;;;6.60;;
71150;SDS011;59071;42.138;24.768;2023-07-31T09:00:07;7.65;;;6.90;;
71150;SDS011;59071;42.138;24.768;2023-07-31T09:02:45;9.48;;;7.72;;
71150;SDS011;59071;42.138;24.768;2023-07-31T09:05:19;8.32;;;6.90;;
71150;SDS011;59071;42.138;24.768;2023-07-31T09:07:47;9.35;;;6.78;;
71150;SDS011;59071;42.138;24.768;2023-07-31T09:10:13;8.48;;;7.20;;
71150;SDS011;59071;42.138;24.768;2023-07-31T09:12:38;7.40;;;6.60;;
71150;SDS011;59071;42.138;24.768;2023-07-31T09:15:05;8.50;;;6.65;;
71150;SDS011;59071;42.138;24.768;2023-07-31T09:17:31;7.70;;;6.60;;
71150;SDS011;59071;42.138;24.768;2023-07-31T09:20:20;7.95;;;7.07;;
71150;SDS011;59071;42.138;24.768;2023-07-31T09:22:47;7.57;;;6.88;;
71150;SDS011;59071;42.138;24.768;2023-07-31T09:25:23;8.18;;;6.90;;
71150;SDS011;59071;42.138;24.768;2023-07-31T09:27:57;8.50;;;7.30;;
71150;SDS011;59071;42.138;24.768;2023-07-31T09:30:24;7.57;;;6.75;;
71150;SDS011;59071;42.138;24.768;2023-07-31T09:32:51;7.30;;;6.60;;
71150;SDS011;59071;42.138;24.768;2023-07-31T09:35:21;8.70;;;7.82;;
71150;SDS011;59071;42.138;24.768;2023-07-31T09:37:53;8.10;;;7.30;;
71150;SDS011;59071;42.138;24.768;2023-07-31T09:40:30;7.38;;;6.68;;
71150;SDS011;59071;42.138;24.768;2023-07-31T09:42:57;7.82;;;7.03;;
71150;SDS011;59071;42.138;24.768;2023-07-31T09:45:27;7.88;;;7.07;;
71150;SDS011;59071;42.138;24.768;2023-07-31T09:47:53;8.27;;;7.13;;
71150;SDS011;59071;42.138;24.768;2023-07-31T09:50:23;8.82;;;6.85;;
71150;SDS011;59071;42.138;24.768;2023-07-31T09:52:49;7.63;;;6.75;;
71150;SDS011;59071;42.138;24.768;2023-07-31T09:55:15;7.28;;;6.57;;
71150;SDS011;59071;42.138;24.768;2023-07-31T09:57:42;7.88;;;6.90;;
71150;SDS011;59071;42.138;24.768;2023-07-31T10:00:09;7.43;;;6.72;;
71150;SDS011;59071;42.138;24.768;2023-07-31T10:02:36;8.00;;;6.53;;
71150;SDS011;59071;42.138;24.768;2023-07-31T10:05:03;7.35;;;6.40;;
71150;SDS011;59071;42.138;24.768;2023-07-31T10:07:30;6.22;;;5.63;;
71150;SDS011;59071;42.138;24.768;2023-07-31T10:09:59;6.53;;;5.90;;
71150;SDS011;59071;42.138;24.768;2023-07-31T10:12:26;6.47;;;5.88;;
71150;SDS011;59071;42.138;24.768;2023-07-31T10:14:55;6.20;;;5.60;;
71150;SDS011;59071;42.138;24.768;2023-07-31T10:17:21;6.93;;;6.22;;
71150;SDS011;59071;42.138;24.768;2023-07-31T10:19:48;7.60;;;6.60;;
71150;SDS011;59071;42.138;24.768;2023-07-31T10:22:15;6.78;;;6.03;;
71150;SDS011;59071;42.138;24.768;2023-07-31T10:24:43;7.82;;;5.90;;
71150;SDS011;59071;42.138;24.768;2023-07-31T10:27:10;6.97;;;6.00;;
71150;SDS011;59071;42.138;24.768;2023-07-31T10:29:39;7.38;;;6.45;;
71150;SDS011;59071;42.138;24.768;2023-07-31T10:32:06;7.00;;;6.30;;
71150;SDS011;59071;42.138;24.768;2023-07-31T10:34:35;6.80;;;6.10;;
71150;SDS011;59071;42.138;24.768;2023-07-31T10:45:00;6.63;;;5.65;;
71150;SDS011;59071;42.138;24.768;2023-07-31T10:47:27;6.10;;;5.50;;
71150;SDS011;59071;42.138;24.768;2023-07-31T10:49:53;6.85;;;5.75;;
71150;SDS011;59071;42.138;24.768;2023-07-31T10:52:35;7.75;;;5.68;;
71150;SDS011;59071;42.138;24.768;2023-07-31T10:55:13;6.90;;;6.05;;
71150;SDS011;59071;42.138;24.768;2023-07-31T10:57:44;6.47;;;5.88;;
71150;SDS011;59071;42.138;24.768;2023-07-31T11:02:59;6.55;;;5.70;;
71150;SDS011;59071;42.138;24.768;2023-07-31T11:10:45;6.93;;;6.22;;
71150;SDS011;59071;42.138;24.768;2023-07-31T11:13:12;7.22;;;6.53;;
71150;SDS011;59071;42.138;24.768;2023-07-31T11:15:39;9.25;;;6.43;;
71150;SDS011;59071;42.138;24.768;2023-07-31T11:18:04;7.88;;;6.30;;
71150;SDS011;59071;42.138;24.768;2023-07-31T11:20:33;7.30;;;6.60;;
71150;SDS011;59071;42.138;24.768;2023-07-31T11:23:05;5.72;;;5.05;;
71150;SDS011;59071;42.138;24.768;2023-07-31T11:25:33;6.93;;;5.38;;
71150;SDS011;59071;42.138;24.768;2023-07-31T11:28:03;7.07;;;5.07;;
71150;SDS011;59071;42.138;24.768;2023-07-31T11:30:32;5.30;;;4.80;;
71150;SDS011;59071;42.138;24.768;2023-07-31T11:32:57;7.80;;;5.13;;
71150;SDS011;59071;42.138;24.768;2023-07-31T11:35:23;5.53;;;4.63;;
71150;SDS011;59071;42.138;24.768;2023-07-31T11:37:49;7.32;;;5.00;;
71150;SDS011;59071;42.138;24.768;2023-07-31T11:40:14;5.38;;;4.80;;
71150;SDS011;59071;42.138;24.768;2023-07-31T11:42:40;5.75;;;5.15;;
71150;SDS011;59071;42.138;24.768;2023-07-31T11:45:09;5.40;;;4.90;;
71150;SDS011;59071;42.138;24.768;2023-07-31T11:47:35;6.28;;;5.32;;
71150;SDS011;59071;42.138;24.768;2023-07-31T11:50:03;5.88;;;5.25;;
71150;SDS011;59071;42.138;24.768;2023-07-31T11:52:31;7.60;;;5.55;;
71150;SDS011;59071;42.138;24.768;2023-07-31T11:55:00;5.63;;;4.50;;
71150;SDS011;59071;42.138;24.768;2023-07-31T11:57:26;6.10;;;4.20;;
71150;SDS011;59071;42.138;24.768;2023-07-31T11:59:53;6.10;;;5.15;;
71150;SDS011;59071;42.138;24.768;2023-07-31T12:02:19;10.75;;;5.45;;
71150;SDS011;59071;42.138;24.768;2023-07-31T12:04:46;6.13;;;5.47;;
71150;SDS011;59071;42.138;24.768;2023-07-31T12:07:12;6.30;;;5.60;;
71150;SDS011;59071;42.138;24.768;2023-07-31T12:09:38;6.18;;;5.57;;
71150;SDS011;59071;42.138;24.768;2023-07-31T12:12:07;6.45;;;5.60;;
71150;SDS011;59071;42.138;24.768;2023-07-31T12:14:34;6.10;;;5.50;;
71150;SDS011;59071;42.138;24.768;2023-07-31T12:17:00;7.22;;;5.60;;
71150;SDS011;59071;42.138;24.768;2023-07-31T12:19:29;6.40;;;5.70;;
71150;SDS011;59071;42.138;24.768;2023-07-31T12:21:55;6.50;;;5.85;;
71150;SDS011;59071;42.138;24.768;2023-07-31T12:24:21;6.25;;;5.65;;
71150;SDS011;59071;42.138;24.768;2023-07-31T12:26:47;6.47;;;5.88;;
71150;SDS011;59071;42.138;24.768;2023-07-31T12:29:13;5.93;;;5.32;;
71150;SDS011;59071;42.138;24.768;2023-07-31T12:31:40;7.32;;;6.00;;
71150;SDS011;59071;42.138;24.768;2023-07-31T12:34:16;6.20;;;5.60;;
71150;SDS011;59071;42.138;24.768;2023-07-31T12:36:43;5.75;;;5.18;;
71150;SDS011;59071;42.138;24.768;2023-07-31T12:39:09;6.57;;;5.50;;
71150;SDS011;59071;42.138;24.768;2023-07-31T12:41:34;6.22;;;5.63;;
71150;SDS011;59071;42.138;24.768;2023-07-31T12:44:00;6.70;;;5.18;;
71150;SDS011;59071;42.138;24.768;2023-07-31T12:46:25;5.85;;;5.25;;
71150;SDS011;59071;42.138;24.768;2023-07-31T12:48:51;6.88;;;5.00;;
71150;SDS011;59071;42.138;24.768;2023-07-31T12:51:16;6.13;;;5.30;;
71150;SDS011;59071;42.138;24.768;2023-07-31T12:53:42;5.00;;;4.50;;
71150;SDS011;59071;42.138;24.768;2023-07-31T12:56:07;5.32;;;4.55;;
71150;SDS011;59071;42.138;24.768;2023-07-31T12:58:33;4.85;;;4.35;;
71150;SDS011;59071;42.138;24.768;2023-07-31T13:00:58;5.20;;;4.35;;
71150;SDS011;59071;42.138;24.768;2023-07-31T13:03:23;5.60;;;4.82;;
71150;SDS011;59071;42.138;24.768;2023-07-31T13:05:49;6.43;;;5.50;;
71150;SDS011;59071;42.138;24.768;2023-07-31T13:08:15;5.75;;;5.25;;
71150;SDS011;59071;42.138;24.768;2023-07-31T13:10:42;6.28;;;5.35;;
71150;SDS011;59071;42.138;24.768;2023-07-31T13:13:09;6.47;;;4.90;;
71150;SDS011;59071;42.138;24.768;2023-07-31T13:15:35;6.10;;;5.25;;
71150;SDS011;59071;42.138;24.768;2023-07-31T13:18:00;5.75;;;5.15;;
71150;SDS011;59071;42.138;24.768;2023-07-31T13:20:26;5.80;;;5.20;;
71150;SDS011;59071;42.138;24.768;2023-07-31T13:22:51;6.13;;;5.07;;
71150;SDS011;59071;42.138;24.768;2023-07-31T13:25:17;7.00;;;5.10;;
71150;SDS011;59071;42.138;24.768;2023-07-31T13:27:42;5.53;;;4.93;;
71150;SDS011;59071;42.138;24.768;2023-07-31T13:30:08;6.07;;;5.40;;
71150;SDS011;59071;42.138;24.768;2023-07-31T13:32:33;5.43;;;4.93;;
71150;SDS011;59071;42.138;24.768;2023-07-31T13:35:03;5.90;;;5.22;;
71150;SDS011;59071;42.138;24.768;2023-07-31T13:37:32;5.85;;;4.82;;
71150;SDS011;59071;42.138;24.768;2023-07-31T13:39:57;6.80;;;5.25;;
71150;SDS011;59071;42.138;24.768;2023-07-31T13:42:23;5.35;;;4.85;;
71150;SDS011;59071;42.138;24.768;2023-07-31T13:44:48;5.55;;;4.88;;
71150;SDS011;59071;42.138;24.768;2023-07-31T13:47:14;5.55;;;5.00;;
71150;SDS011;59071;42.138;24.768;2023-07-31T13:49:40;6.10;;;5.05;;
71150;SDS011;59071;42.138;24.768;2023-07-31T13:54:33;6.47;;;4.70;;
71150;SDS011;59071;42.138;24.768;2023-07-31T13:56:58;4.63;;;4.22;;
71150;SDS011;59071;42.138;24.768;2023-07-31T13:59:24;5.57;;;5.00;;
71150;SDS011;59071;42.138;24.768;2023-07-31T14:01:49;5.05;;;4.55;;
71150;SDS011;59071;42.138;24.768;2023-07-31T14:04:15;5.20;;;4.70;;
71150;SDS011;59071;42.138;24.768;2023-07-31T14:06:42;4.90;;;4.40;;
71150;SDS011;59071;42.138;24.768;2023-07-31T14:09:08;5.40;;;4.90;;
71150;SDS011;59071;42.138;24.768;2023-07-31T14:11:33;5.00;;;4.60;;
71150;SDS011;59071;42.138;24.768;2023-07-31T14:13:59;5.43;;;4.80;;
71150;SDS011;59071;42.138;24.768;2023-07-31T14:16:26;5.10;;;4.60;;
71150;SDS011;59071;42.138;24.768;2023-07-31T14:18:52;4.85;;;4.45;;
71150;SDS011;59071;42.138;24.768;2023-07-31T14:21:18;5.93;;;5.10;;
71150;SDS011;59071;42.138;24.768;2023-07-31T14:23:44;5.40;;;4.63;;
71150;SDS011;59071;42.138;24.768;2023-07-31T14:26:10;5.10;;;4.60;;
71150;SDS011;59071;42.138;24.768;2023-07-31T14:28:35;5.13;;;4.63;;
71150;SDS011;59071;42.138;24.768;2023-07-31T14:31:03;5.17;;;4.63;;
71150;SDS011;59071;42.138;24.768;2023-07-31T14:33:29;5.10;;;4.47;;
71150;SDS011;59071;42.138;24.768;2023-07-31T14:35:54;5.20;;;4.70;;
71150;SDS011;59071;42.138;24.768;2023-07-31T14:38:20;5.00;;;4.50;;
71150;SDS011;59071;42.138;24.768;2023-07-31T14:40:45;5.00;;;4.50;;
71150;SDS011;59071;42.138;24.768;2023-07-31T14:43:11;5.35;;;4.57;;
71150;SDS011;59071;42.138;24.768;2023-07-31T14:45:36;5.10;;;4.60;;
71150;SDS011;59071;42.138;24.768;2023-07-31T14:48:02;5.25;;;4.75;;
71150;SDS011;59071;42.138;24.768;2023-07-31T14:50:27;5.78;;;5.18;;
71150;SDS011;59071;42.138;24.768;2023-07-31T14:52:53;5.88;;;5.28;;
71150;SDS011;59071;42.138;24.768;2023-07-31T14:55:19;5.75;;;5.13;;
71150;SDS011;59071;42.138;24.768;2023-07-31T14:57:44;5.93;;;5.43;;